Strona główna
METAR-TAF:

METAR-TAF

Lotnisko :

Baza lotnicza Cameri

Novara, Włochy

Szerokość geograficzna: 45-31N, Długość geograficzna: 008-40E, wysokość: 178 m

Aktualna obserwacja pogody

Raport powstał 58 minut temu, godzina 10:55 UTC
Wiatr 16 kt od północ w porywach dochodzący do 26 kt
Temperatura 12°C
Wilgotność 22%
Ciśnienie 1019 hPa
Widzialność 10 km lub więcej
Brak chmur poniżej 1500 m i brak chmur cumulonimbus

METAR: LIMN 101055Z 01016G26KT CAVOK 12/M09 Q1019 RMK SKC VIS MIN 9999 BLU

czas: 12:53 (11:53 UTC)

Prognoza

Raport powstał 53 minut temu, godzina 11:00 UTC
Prognoza ważna od 10 godzina 12 UTC do 10 godzina 21 UTC
Wiatr 12 kt od północny wschód
Widzialność 10 km lub więcej
Brak chmur poniżej 1500 m i brak chmur cumulonimbus
Przejściowo
od 10 godzina 12 UTC do 10 godzina 21 UTC
Wiatr 20 kt od północ w porywach dochodzący do 30 kt

TAF: LIMN 101100Z 1012/1021 04012KT CAVOK TEMPO 1012/1021 01020G30KT

Obserwacja i prognoza pogody dla ponad 4000 lotnisk (raport METAR i TAF).

Dostępne stacje oznaczono żółtymi i czerwonymi punktami na mapie.

Najedź kursorem aby zobaczyć nazwę stacji.

Kliknij aby zobaczyć obserwacje i prognozy pogody.

Aby zmienić mapę: kliknij na zielony przycisk z czarnym krzyżykiem, aby powiększyć; na zielony przycisk z myślnikiem, aby pomniejszyć; na zielone strzałki, aby przejść do map sąsiednich.


METAR-TAF: